createdAt,value
2024-02-26T00:02:24.815Z,7.60
2024-02-26T00:04:52.806Z,7.57
2024-02-26T00:07:20.805Z,7.62
2024-02-26T00:09:48.890Z,7.59
2024-02-26T00:12:17.027Z,7.54
2024-02-26T00:14:46.380Z,7.58
2024-02-26T00:17:16.026Z,7.57
2024-02-26T00:19:44.263Z,7.58
2024-02-26T00:22:12.362Z,7.62
2024-02-26T00:24:42.529Z,7.66
2024-02-26T00:27:10.639Z,7.66
2024-02-26T00:29:38.768Z,7.64
2024-02-26T00:32:07.513Z,7.62
2024-02-26T00:34:36.964Z,7.63
2024-02-26T00:37:05.671Z,7.61
2024-02-26T00:39:33.857Z,7.57
2024-02-26T00:42:01.998Z,7.57
2024-02-26T00:44:30.039Z,7.49
2024-02-26T00:46:58.078Z,7.49
2024-02-26T00:49:26.123Z,7.49
2024-02-26T00:51:55.729Z,7.49
2024-02-26T00:54:24.088Z,7.50
2024-02-26T00:56:52.332Z,7.53
2024-02-26T00:59:20.410Z,7.55
2024-02-26T01:01:48.435Z,7.56
2024-02-26T01:04:16.513Z,7.56
2024-02-26T01:06:44.722Z,7.54
2024-02-26T01:09:14.300Z,7.51
2024-02-26T01:11:42.554Z,7.57
2024-02-26T01:14:10.695Z,7.52
2024-02-26T01:16:38.771Z,7.52
2024-02-26T01:19:06.940Z,7.55
2024-02-26T01:21:35.126Z,7.45
2024-02-26T01:24:03.220Z,7.49
2024-02-26T01:26:32.698Z,7.47
2024-02-26T01:29:00.798Z,7.46
2024-02-26T01:31:28.828Z,7.43
2024-02-26T01:33:57.040Z,7.37
2024-02-26T01:36:25.302Z,7.34
2024-02-26T01:38:53.320Z,7.32
2024-02-26T01:41:21.456Z,7.32
2024-02-26T01:43:50.871Z,7.28
2024-02-26T01:46:19.823Z,7.24
2024-02-26T01:48:48.915Z,7.25
2024-02-26T01:51:18.807Z,7.25
2024-02-26T01:53:47.018Z,7.26
2024-02-26T01:56:16.907Z,7.25
2024-02-26T01:58:45.822Z,7.29
2024-02-26T02:01:17.129Z,7.29
2024-02-26T02:03:46.520Z,7.31
2024-02-26T02:06:15.221Z,7.27
2024-02-26T02:08:44.277Z,7.27
2024-02-26T02:11:13.786Z,7.26
2024-02-26T02:13:41.985Z,7.26
2024-02-26T02:16:10.187Z,7.26
2024-02-26T02:18:39.776Z,7.26
2024-02-26T02:21:09.280Z,7.26
2024-02-26T02:23:37.367Z,7.25
2024-02-26T02:26:05.737Z,7.23
2024-02-26T02:28:34.344Z,7.22
2024-02-26T02:31:02.996Z,7.21
2024-02-26T02:33:31.341Z,7.21
2024-02-26T02:36:00.008Z,7.24
2024-02-26T02:38:31.124Z,7.19
2024-02-26T02:40:59.456Z,7.16
2024-02-26T02:43:27.491Z,7.20
2024-02-26T02:45:55.490Z,7.19
2024-02-26T02:48:23.560Z,7.18
2024-02-26T02:50:51.705Z,7.17
2024-02-26T02:53:19.723Z,7.17
2024-02-26T02:55:49.583Z,7.17
2024-02-26T02:58:17.749Z,7.14
2024-02-26T03:00:45.783Z,7.13
2024-02-26T03:03:13.870Z,7.17
2024-02-26T03:05:42.035Z,7.14
2024-02-26T03:08:10.479Z,7.14
2024-02-26T03:10:38.605Z,7.09
2024-02-26T03:13:08.157Z,7.13
2024-02-26T03:15:36.421Z,7.14
2024-02-26T03:18:05.027Z,7.13
2024-02-26T03:20:33.152Z,7.13
2024-02-26T03:23:01.169Z,7.17
2024-02-26T03:25:29.191Z,7.14
2024-02-26T03:27:57.326Z,7.13
2024-02-26T03:30:27.007Z,7.16
2024-02-26T03:32:55.337Z,7.12
2024-02-26T03:35:23.471Z,7.17
2024-02-26T03:37:52.912Z,7.23
2024-02-26T03:40:21.059Z,7.29
2024-02-26T03:42:49.322Z,7.33
2024-02-26T03:45:17.616Z,7.32
2024-02-26T03:47:47.217Z,7.38
2024-02-26T03:50:15.301Z,7.33
2024-02-26T03:52:43.874Z,7.39
2024-02-26T03:55:12.344Z,7.39
2024-02-26T03:57:40.447Z,7.41
2024-02-26T04:00:10.128Z,7.44
2024-02-26T04:02:41.045Z,7.43
2024-02-26T04:05:13.759Z,7.45
2024-02-26T04:07:42.008Z,7.44
2024-02-26T04:10:13.470Z,7.41
2024-02-26T04:12:42.658Z,7.41
2024-02-26T04:15:12.085Z,7.38
2024-02-26T04:17:41.008Z,7.41
2024-02-26T04:20:11.031Z,7.41
2024-02-26T04:22:40.446Z,7.42
2024-02-26T04:25:08.936Z,7.43
2024-02-26T04:27:37.081Z,7.49
2024-02-26T04:30:06.306Z,7.49
2024-02-26T04:32:35.510Z,7.53
2024-02-26T04:35:03.680Z,7.56
2024-02-26T04:37:32.764Z,7.56
2024-02-26T04:40:03.915Z,7.57
2024-02-26T04:42:32.435Z,7.56
2024-02-26T04:45:00.649Z,7.54
2024-02-26T04:47:28.822Z,7.55
2024-02-26T04:49:56.907Z,7.57
2024-02-26T04:52:23.997Z,7.59
2024-02-26T04:54:52.139Z,7.60
2024-02-26T04:57:21.606Z,7.60
2024-02-26T04:59:49.721Z,7.58
2024-02-26T05:02:17.934Z,7.60
2024-02-26T05:04:46.092Z,7.62
2024-02-26T05:07:14.488Z,7.71
2024-02-26T05:09:43.303Z,7.71
2024-02-26T05:12:11.610Z,7.67
2024-02-26T05:14:41.730Z,7.68
2024-02-26T05:17:09.806Z,7.71
2024-02-26T05:19:37.982Z,7.75
2024-02-26T05:22:06.024Z,7.79
2024-02-26T05:24:34.112Z,7.78
2024-02-26T05:27:03.075Z,7.68
2024-02-26T05:29:31.195Z,7.65
2024-02-26T05:32:00.843Z,7.58
2024-02-26T05:34:28.966Z,7.65
2024-02-26T05:36:57.002Z,7.70
2024-02-26T05:39:25.099Z,7.68
2024-02-26T05:41:53.167Z,7.71
2024-02-26T05:44:21.307Z,7.77
2024-02-26T05:46:49.399Z,7.71
2024-02-26T05:49:18.915Z,7.62
2024-02-26T05:51:47.144Z,7.48
2024-02-26T05:54:15.229Z,7.56
2024-02-26T05:56:43.855Z,7.58
2024-02-26T05:59:12.016Z,7.61
2024-02-26T06:01:40.033Z,7.61
2024-02-26T06:04:08.100Z,7.55
2024-02-26T06:06:39.953Z,7.64
2024-02-26T06:09:11.602Z,7.65
2024-02-26T06:11:39.831Z,7.67
2024-02-26T06:14:07.919Z,7.51
2024-02-26T06:16:36.059Z,7.17
2024-02-26T06:19:04.983Z,6.97
2024-02-26T06:21:33.179Z,6.93
2024-02-26T06:24:03.215Z,7.29
2024-02-26T06:26:31.239Z,7.50
2024-02-26T06:28:59.268Z,7.69
2024-02-26T06:31:28.893Z,7.71
2024-02-26T06:33:57.879Z,7.69
2024-02-26T06:36:27.050Z,7.77
2024-02-26T06:38:55.953Z,7.63
2024-02-26T06:41:28.620Z,7.57
2024-02-26T06:43:56.672Z,7.53
2024-02-26T06:46:25.169Z,7.32
2024-02-26T06:48:55.578Z,7.39
2024-02-26T06:51:24.404Z,7.52
2024-02-26T06:53:52.721Z,7.64
2024-02-26T06:56:21.032Z,7.75
2024-02-26T06:58:50.493Z,7.84
2024-02-26T07:01:18.535Z,7.97
2024-02-26T07:03:46.788Z,8.02
2024-02-26T07:06:15.357Z,8.08
2024-02-26T07:08:43.616Z,8.13
2024-02-26T07:11:13.005Z,8.20
2024-02-26T07:13:41.133Z,8.24
2024-02-26T07:16:11.721Z,8.20
2024-02-26T07:18:40.207Z,8.13
2024-02-26T07:21:08.387Z,7.91
2024-02-26T07:23:36.423Z,7.78
2024-02-26T07:26:04.608Z,7.69
2024-02-26T07:28:32.627Z,7.64
2024-02-26T07:31:00.694Z,7.61
2024-02-26T07:33:30.284Z,7.61
2024-02-26T07:35:58.483Z,7.76
2024-02-26T07:38:36.484Z,7.85
2024-02-26T07:41:10.758Z,7.92
2024-02-26T07:43:38.849Z,8.03
2024-02-26T07:46:07.000Z,8.19
2024-02-26T07:48:36.595Z,8.25
2024-02-26T07:51:05.781Z,8.33
2024-02-26T07:53:33.828Z,8.42
2024-02-26T07:56:01.936Z,8.58
2024-02-26T07:58:29.929Z,8.70
2024-02-26T08:00:58.158Z,8.73
2024-02-26T08:03:26.326Z,8.75
2024-02-26T08:05:56.714Z,8.78
2024-02-26T08:08:24.923Z,8.76
2024-02-26T08:10:52.976Z,8.78
2024-02-26T08:13:21.010Z,8.85
2024-02-26T08:15:49.112Z,8.91
2024-02-26T08:18:17.375Z,9.00
2024-02-26T08:20:45.684Z,9.12
2024-02-26T08:23:15.203Z,9.18
2024-02-26T08:25:43.287Z,9.16
2024-02-26T08:28:12.424Z,9.15
2024-02-26T08:30:40.593Z,9.15
2024-02-26T08:33:08.679Z,9.12
2024-02-26T08:35:36.804Z,9.16
2024-02-26T08:38:05.032Z,9.19
2024-02-26T08:40:34.476Z,9.18
2024-02-26T08:43:02.567Z,9.16
2024-02-26T08:45:31.085Z,9.20
2024-02-26T08:47:59.970Z,9.20
2024-02-26T08:50:28.589Z,9.21
2024-02-26T08:52:56.729Z,9.24
2024-02-26T08:55:25.079Z,9.27
2024-02-26T08:57:54.752Z,9.34
2024-02-26T09:00:23.000Z,9.39
2024-02-26T09:02:51.513Z,9.40
2024-02-26T09:05:19.596Z,9.43
2024-02-26T09:07:48.694Z,9.37
2024-02-26T09:10:16.810Z,9.36
2024-02-26T09:12:44.936Z,9.38
2024-02-26T09:15:14.551Z,9.29
2024-02-26T09:17:42.647Z,9.05
2024-02-26T09:20:11.470Z,9.05
2024-02-26T09:22:40.149Z,9.18
2024-02-26T09:25:08.745Z,9.30
2024-02-26T09:27:39.158Z,9.24
2024-02-26T09:30:09.926Z,9.12
2024-02-26T09:32:39.504Z,9.15
2024-02-26T09:35:08.542Z,9.35
2024-02-26T09:37:38.005Z,9.52
2024-02-26T09:40:07.416Z,9.65
2024-02-26T09:42:37.605Z,9.71
2024-02-26T09:45:09.884Z,9.77
2024-02-26T09:47:40.718Z,9.77
2024-02-26T09:50:13.654Z,9.78
2024-02-26T09:52:43.555Z,9.86
2024-02-26T09:55:11.805Z,9.87
2024-02-26T09:57:40.249Z,9.90
2024-02-26T10:00:12.715Z,9.94
2024-02-26T10:02:42.472Z,9.98
2024-02-26T10:05:14.805Z,10.03
2024-02-26T10:07:44.432Z,10.06
2024-02-26T10:10:12.814Z,10.10
2024-02-26T10:12:41.065Z,10.14
2024-02-26T10:15:09.880Z,10.19
2024-02-26T10:17:39.231Z,10.22
2024-02-26T10:20:18.018Z,10.18
2024-02-26T10:22:46.312Z,10.19
2024-02-26T10:25:14.483Z,10.22
2024-02-26T10:27:43.898Z,10.25
2024-02-26T10:30:23.777Z,10.27
2024-02-26T10:32:52.498Z,10.32
2024-02-26T10:35:22.774Z,10.34
2024-02-26T10:37:51.858Z,10.28
2024-02-26T10:40:19.908Z,9.96
2024-02-26T10:42:47.911Z,9.99
2024-02-26T10:45:16.265Z,10.00
2024-02-26T10:47:44.880Z,9.97
2024-02-26T10:50:15.441Z,10.06
2024-02-26T10:52:45.366Z,10.18
2024-02-26T10:55:19.442Z,10.20
2024-02-26T10:57:48.091Z,10.25
2024-02-26T11:00:17.623Z,10.27
2024-02-26T11:02:47.576Z,10.44
2024-02-26T11:05:16.830Z,10.62
2024-02-26T11:07:48.330Z,10.82
2024-02-26T11:10:18.170Z,10.84
2024-02-26T11:12:47.206Z,10.97
2024-02-26T11:15:16.227Z,11.11
2024-02-26T11:17:46.176Z,11.13
2024-02-26T11:20:16.289Z,11.08
2024-02-26T11:22:44.345Z,11.08
2024-02-26T11:25:14.285Z,11.16
2024-02-26T11:27:47.177Z,11.21
2024-02-26T11:30:17.270Z,11.24
2024-02-26T11:32:47.697Z,11.17
2024-02-26T11:35:18.970Z,11.09
2024-02-26T11:37:55.031Z,11.04
2024-02-26T11:40:25.840Z,11.23
2024-02-26T11:42:54.608Z,11.37
2024-02-26T11:45:50.821Z,11.40
2024-02-26T11:48:23.397Z,11.57
2024-02-26T11:50:52.941Z,11.73
2024-02-26T11:53:26.900Z,11.83
2024-02-26T11:56:28.336Z,12.05
2024-02-26T11:59:03.760Z,12.16
2024-02-26T12:01:38.004Z,12.21
2024-02-26T12:04:08.177Z,12.34
2024-02-26T12:06:44.748Z,12.31
2024-02-26T12:09:14.482Z,12.39
2024-02-26T12:11:44.850Z,12.28
2024-02-26T12:14:14.236Z,12.30
2024-02-26T12:16:43.930Z,12.29
2024-02-26T12:19:12.305Z,12.23
2024-02-26T12:21:40.643Z,12.15
2024-02-26T12:24:14.127Z,12.30
2024-02-26T12:26:43.959Z,12.38
2024-02-26T12:29:12.259Z,12.45
2024-02-26T12:31:42.212Z,12.53
2024-02-26T12:34:11.952Z,12.65
2024-02-26T12:36:41.544Z,12.57
2024-02-26T12:39:10.865Z,12.55
2024-02-26T12:41:40.859Z,12.59
2024-02-26T12:44:11.269Z,12.61
2024-02-26T12:46:39.344Z,12.63
2024-02-26T12:49:07.664Z,12.58
2024-02-26T12:51:36.161Z,12.60
2024-02-26T12:54:04.551Z,12.71
2024-02-26T12:56:33.000Z,12.69
2024-02-26T12:59:01.663Z,12.58
2024-02-26T13:01:32.112Z,12.54
2024-02-26T13:04:02.136Z,12.73
2024-02-26T13:06:30.400Z,12.77
2024-02-26T13:09:00.438Z,12.81
2024-02-26T13:11:30.093Z,12.60
2024-02-26T13:13:58.156Z,12.39
2024-02-26T13:16:27.564Z,12.44
2024-02-26T13:18:57.055Z,12.39
2024-02-26T13:21:25.861Z,12.38
2024-02-26T13:23:55.965Z,12.21
2024-02-26T13:26:25.724Z,12.11
2024-02-26T13:29:02.391Z,12.08
2024-02-26T13:31:30.470Z,11.97
2024-02-26T13:34:00.132Z,11.96
2024-02-26T13:36:28.478Z,12.04
2024-02-26T13:38:57.670Z,12.16
2024-02-26T13:41:25.717Z,12.16
2024-02-26T13:43:53.888Z,11.99
2024-02-26T13:46:21.923Z,11.95
2024-02-26T13:48:50.081Z,11.87
2024-02-26T13:51:19.625Z,11.92
2024-02-26T13:53:47.799Z,11.97
2024-02-26T13:56:15.859Z,12.00
2024-02-26T13:58:43.922Z,12.20
2024-02-26T14:01:12.086Z,12.37
2024-02-26T14:03:40.281Z,12.37
2024-02-26T14:06:08.892Z,12.36
2024-02-26T14:08:38.380Z,12.28
2024-02-26T14:11:06.519Z,12.14
2024-02-26T14:13:37.340Z,12.12
2024-02-26T14:16:06.926Z,12.14
2024-02-26T14:18:35.042Z,12.15
2024-02-26T14:21:03.297Z,12.24
2024-02-26T14:23:30.314Z,12.29
2024-02-26T14:26:01.571Z,12.23
2024-02-26T14:28:36.219Z,12.17
2024-02-26T14:31:07.130Z,12.17
2024-02-26T14:33:35.608Z,12.28
2024-02-26T14:36:03.907Z,12.30
2024-02-26T14:38:31.994Z,12.24
2024-02-26T14:41:01.386Z,12.18
2024-02-26T14:43:29.437Z,12.24
2024-02-26T14:45:58.376Z,12.16
2024-02-26T14:48:26.620Z,12.20
2024-02-26T14:50:54.940Z,12.24
2024-02-26T14:53:23.116Z,12.30
2024-02-26T14:55:51.404Z,12.37
2024-02-26T14:58:20.840Z,12.32
2024-02-26T15:00:49.153Z,12.34
2024-02-26T15:03:21.128Z,12.39
2024-02-26T15:05:49.403Z,12.42
2024-02-26T15:08:17.935Z,12.40
2024-02-26T15:10:49.610Z,12.30
2024-02-26T15:13:19.251Z,12.30
2024-02-26T15:15:49.014Z,12.19
2024-02-26T15:18:18.261Z,12.21
2024-02-26T15:20:47.380Z,12.23
2024-02-26T15:23:15.499Z,12.20
2024-02-26T15:25:44.308Z,12.27
2024-02-26T15:28:15.128Z,12.31
2024-02-26T15:30:43.540Z,12.42
2024-02-26T15:33:13.335Z,12.38
2024-02-26T15:35:43.768Z,12.37
2024-02-26T15:38:11.960Z,12.16
2024-02-26T15:40:40.015Z,12.12
2024-02-26T15:43:08.152Z,12.09
2024-02-26T15:45:36.297Z,12.01
2024-02-26T15:48:04.809Z,12.07
2024-02-26T15:50:34.556Z,12.10
2024-02-26T15:53:02.688Z,12.11
2024-02-26T15:55:30.909Z,12.06
2024-02-26T15:57:58.916Z,12.08
2024-02-26T16:00:27.989Z,12.15
2024-02-26T16:02:56.163Z,12.27
2024-02-26T16:05:24.236Z,12.36
2024-02-26T16:07:57.679Z,12.38
2024-02-26T16:10:28.589Z,12.39
2024-02-26T16:13:00.432Z,12.42
2024-02-26T16:15:29.565Z,12.18
2024-02-26T16:17:59.816Z,11.91
2024-02-26T16:20:30.619Z,11.75
2024-02-26T16:23:06.096Z,11.75
2024-02-26T16:25:34.365Z,11.80
2024-02-26T16:28:02.559Z,11.80
2024-02-26T16:30:33.673Z,11.51
2024-02-26T16:33:02.055Z,11.42
2024-02-26T16:35:30.306Z,11.33
2024-02-26T16:37:59.674Z,11.25
2024-02-26T16:40:27.795Z,11.15
2024-02-26T16:42:55.850Z,11.07
2024-02-26T16:45:24.050Z,10.92
2024-02-26T16:47:52.326Z,10.85
2024-02-26T16:50:21.411Z,10.86
2024-02-26T16:52:50.803Z,10.78
2024-02-26T16:55:20.697Z,10.72
2024-02-26T16:57:48.725Z,10.73
2024-02-26T17:00:17.995Z,10.67
2024-02-26T17:02:48.578Z,10.62
2024-02-26T17:05:16.952Z,10.52
2024-02-26T17:07:46.851Z,10.45
2024-02-26T17:10:16.430Z,10.41
2024-02-26T17:12:46.654Z,10.32
2024-02-26T17:15:14.906Z,10.33
2024-02-26T17:17:43.028Z,10.31
2024-02-26T17:20:11.877Z,10.25
2024-02-26T17:22:39.952Z,10.29
2024-02-26T17:25:08.778Z,10.36
2024-02-26T17:27:36.928Z,10.34
2024-02-26T17:30:08.441Z,10.42
2024-02-26T17:32:36.649Z,10.42
2024-02-26T17:35:06.740Z,10.44
2024-02-26T17:37:34.925Z,10.43
2024-02-26T17:40:03.131Z,10.54
2024-02-26T17:42:31.231Z,10.62
2024-02-26T17:44:58.556Z,10.60
2024-02-26T17:47:27.953Z,10.54
2024-02-26T17:49:56.113Z,10.36
2024-02-26T17:52:25.152Z,10.27
2024-02-26T17:54:53.204Z,10.17
2024-02-26T17:57:22.024Z,10.08
2024-02-26T17:59:50.296Z,10.02
2024-02-26T18:02:19.547Z,10.02
2024-02-26T18:04:49.131Z,10.00
2024-02-26T18:07:17.226Z,9.97
2024-02-26T18:09:45.249Z,9.97
2024-02-26T18:12:13.321Z,9.99
2024-02-26T18:14:41.330Z,9.93
2024-02-26T18:17:09.326Z,9.90
2024-02-26T18:19:37.506Z,9.87
2024-02-26T18:22:07.090Z,9.85
2024-02-26T18:24:35.138Z,9.80
2024-02-26T18:27:05.444Z,9.78
2024-02-26T18:29:33.791Z,9.76
2024-02-26T18:32:01.893Z,9.78
2024-02-26T18:34:30.134Z,9.82
2024-02-26T18:36:58.256Z,9.84
2024-02-26T18:39:27.818Z,9.84
2024-02-26T18:41:57.015Z,9.82
2024-02-26T18:44:25.255Z,9.86
2024-02-26T18:46:53.254Z,9.85
2024-02-26T18:49:21.493Z,9.85
2024-02-26T18:51:49.757Z,9.86
2024-02-26T18:54:17.962Z,9.92
2024-02-26T18:56:47.520Z,9.95
2024-02-26T18:59:17.205Z,9.90
2024-02-26T19:01:45.333Z,9.75
2024-02-26T19:04:13.449Z,9.50
2024-02-26T19:06:41.927Z,9.39
2024-02-26T19:09:11.918Z,9.27
2024-02-26T19:11:39.991Z,9.24
2024-02-26T19:14:09.472Z,9.25
2024-02-26T19:16:37.451Z,9.26
2024-02-26T19:19:06.119Z,9.26
2024-02-26T19:21:34.316Z,9.39
2024-02-26T19:24:04.284Z,9.43
2024-02-26T19:26:33.158Z,9.47
2024-02-26T19:29:04.294Z,9.55
2024-02-26T19:31:35.296Z,9.58
2024-02-26T19:34:03.510Z,9.61
2024-02-26T19:36:31.692Z,9.64
2024-02-26T19:38:59.742Z,9.63
2024-02-26T19:41:27.817Z,9.60
2024-02-26T19:43:55.843Z,9.36
2024-02-26T19:46:24.252Z,9.06
2024-02-26T19:48:53.775Z,9.02
2024-02-26T19:51:21.943Z,8.94
2024-02-26T19:53:50.091Z,8.88
2024-02-26T19:56:19.668Z,8.89
2024-02-26T19:58:47.674Z,8.84
2024-02-26T20:01:15.836Z,8.79
2024-02-26T20:03:49.541Z,8.78
2024-02-26T20:06:19.749Z,8.70
2024-02-26T20:08:48.018Z,8.66
2024-02-26T20:11:18.076Z,8.59
2024-02-26T20:13:46.242Z,8.59
2024-02-26T20:16:14.509Z,8.62
2024-02-26T20:18:42.679Z,8.59
2024-02-26T20:21:10.916Z,8.62
2024-02-26T20:23:40.469Z,8.57
2024-02-26T20:26:08.529Z,8.57
2024-02-26T20:28:37.055Z,8.57
2024-02-26T20:31:06.970Z,8.53
2024-02-26T20:33:37.345Z,8.51
2024-02-26T20:36:06.415Z,8.53
2024-02-26T20:38:34.440Z,8.50
2024-02-26T20:41:03.887Z,8.51
2024-02-26T20:43:31.915Z,8.50
2024-02-26T20:46:00.214Z,8.49
2024-02-26T20:48:28.429Z,8.40
2024-02-26T20:50:56.527Z,8.34
2024-02-26T20:53:24.630Z,8.36
2024-02-26T20:55:54.003Z,8.38
2024-02-26T20:58:23.426Z,8.35
2024-02-26T21:00:51.447Z,8.30
2024-02-26T21:03:20.073Z,8.35
2024-02-26T21:05:48.196Z,8.35
2024-02-26T21:08:23.765Z,8.32
2024-02-26T21:10:57.072Z,8.30
2024-02-26T21:13:26.474Z,8.25
2024-02-26T21:15:54.492Z,8.23
2024-02-26T21:18:23.022Z,8.25
2024-02-26T21:20:54.237Z,8.23
2024-02-26T21:23:22.550Z,8.20
2024-02-26T21:25:50.797Z,8.21
2024-02-26T21:28:18.800Z,8.19
2024-02-26T21:30:48.214Z,8.20
2024-02-26T21:33:16.381Z,8.21
2024-02-26T21:35:44.495Z,8.19
2024-02-26T21:38:12.513Z,8.16
2024-02-26T21:40:40.521Z,8.19
2024-02-26T21:43:08.615Z,8.12
2024-02-26T21:45:37.993Z,8.05
2024-02-26T21:48:07.992Z,8.05
2024-02-26T21:50:36.388Z,8.08
2024-02-26T21:53:04.608Z,8.09
2024-02-26T21:55:32.681Z,8.10
2024-02-26T21:58:00.644Z,8.13
2024-02-26T22:00:28.774Z,8.08
2024-02-26T22:02:56.912Z,8.02
2024-02-26T22:05:26.285Z,8.00
2024-02-26T22:07:54.909Z,8.03
2024-02-26T22:10:22.931Z,8.02
2024-02-26T22:12:50.946Z,8.02
2024-02-26T22:15:20.977Z,8.00
2024-02-26T22:17:49.368Z,7.98
2024-02-26T22:20:17.507Z,7.98
2024-02-26T22:22:46.906Z,7.99
2024-02-26T22:25:15.532Z,8.01
2024-02-26T22:27:43.543Z,8.02
2024-02-26T22:30:12.799Z,8.02
2024-02-26T22:32:40.865Z,7.99
2024-02-26T22:35:09.856Z,7.99
2024-02-26T22:37:39.353Z,7.99
2024-02-26T22:40:10.142Z,7.99
2024-02-26T22:42:39.334Z,7.98
2024-02-26T22:45:08.762Z,8.00
2024-02-26T22:47:36.907Z,7.98
2024-02-26T22:50:05.848Z,8.00
2024-02-26T22:52:33.848Z,7.99
2024-02-26T22:55:02.104Z,7.98
2024-02-26T22:57:31.578Z,7.93
2024-02-26T22:59:59.743Z,7.92
2024-02-26T23:02:27.869Z,7.91
2024-02-26T23:04:55.902Z,7.91
2024-02-26T23:07:23.986Z,7.85
2024-02-26T23:09:52.058Z,7.83
2024-02-26T23:12:20.198Z,7.80
2024-02-26T23:14:49.600Z,7.75
2024-02-26T23:17:17.620Z,7.72
2024-02-26T23:19:45.698Z,7.71
2024-02-26T23:22:13.751Z,7.72
2024-02-26T23:24:41.803Z,7.74
2024-02-26T23:27:10.014Z,7.73
2024-02-26T23:29:39.043Z,7.77
2024-02-26T23:32:08.962Z,7.83
2024-02-26T23:34:37.084Z,7.84
2024-02-26T23:37:05.393Z,7.88
2024-02-26T23:39:34.280Z,7.91
2024-02-26T23:42:02.398Z,7.91
2024-02-26T23:44:30.514Z,7.93
2024-02-26T23:46:58.552Z,8.04
2024-02-26T23:49:28.333Z,8.17
2024-02-26T23:51:56.358Z,8.23
2024-02-26T23:54:24.559Z,8.15
2024-02-26T23:56:52.606Z,7.56
2024-02-26T23:59:21.092Z,7.39
